Time;durP1;ratioP1;P1;durP2;ratioP2;P2;SDS_P1;SDS_P2;PMS_P1;PMS_P2;Temp;Humidity;BMP_temperature;BMP_pressure;BME280_temperature;BME280_humidity;BME280_pressure;Samples;Min_cycle;Max_cycle;Signal;HPM_P1;HPM_P2
2023/12/28 00:01:22;;;;;;;3.13;2.83;;;8.20;1.00;;;;;;5099021;28;20188;-45
2023/12/28 00:03:48;;;;;;;3.23;2.80;;;8.20;1.00;;;;;;5098301;28;20450;-41
2023/12/28 00:06:14;;;;;;;2.77;2.37;;;8.10;1.00;;;;;;5099061;28;20882;-41
2023/12/28 00:08:40;;;;;;;3.80;2.80;;;8.00;1.00;;;;;;5099235;28;20784;-43
2023/12/28 00:11:06;;;;;;;4.80;2.53;;;8.10;1.00;;;;;;5098983;28;20410;-44
2023/12/28 00:13:31;;;;;;;3.73;2.90;;;8.00;1.00;;;;;;5098899;28;20185;-45
2023/12/28 00:15:57;;;;;;;3.70;2.80;;;8.00;1.00;;;;;;5098636;28;20358;-40
2023/12/28 00:18:22;;;;;;;2.93;2.63;;;8.00;1.00;;;;;;5097777;28;20518;-42
2023/12/28 00:20:48;;;;;;;3.23;2.93;;;7.90;1.00;;;;;;5098971;28;20173;-42
2023/12/28 00:23:13;;;;;;;2.93;2.70;;;7.90;1.00;;;;;;5097983;28;20225;-44
2023/12/28 00:25:39;;;;;;;3.07;2.63;;;7.80;1.00;;;;;;5098134;28;20203;-43
2023/12/28 00:28:05;;;;;;;3.27;2.80;;;7.70;1.00;;;;;;5098121;28;20212;-42
2023/12/28 00:30:32;;;;;;;3.70;2.50;;;7.70;1.00;;;;;;5098075;28;20184;-41
2023/12/28 00:32:57;;;;;;;3.33;2.90;;;7.80;1.00;;;;;;5098660;28;20191;-45
2023/12/28 00:35:23;;;;;;;3.00;2.70;;;7.80;1.00;;;;;;5097574;28;20891;-46
2023/12/28 00:37:48;;;;;;;2.63;2.43;;;7.80;1.00;;;;;;5098170;28;20180;-44
2023/12/28 00:40:14;;;;;;;3.17;2.87;;;7.90;1.00;;;;;;5096184;28;20550;-44
2023/12/28 00:42:40;;;;;;;2.37;2.17;;;7.80;1.00;;;;;;5096999;28;20279;-44
2023/12/28 00:45:07;;;;;;;2.90;2.43;;;7.80;1.00;;;;;;5096893;28;20557;-46
2023/12/28 00:47:32;;;;;;;2.90;2.47;;;7.70;1.00;;;;;;5096108;28;20453;-44
2023/12/28 00:49:58;;;;;;;3.53;3.23;;;7.70;1.00;;;;;;5096055;28;20477;-41
2023/12/28 00:52:23;;;;;;;3.20;2.80;;;7.60;1.00;;;;;;5095401;28;20233;-43
2023/12/28 00:54:49;;;;;;;3.33;2.50;;;7.80;1.00;;;;;;5095987;28;20237;-43
2023/12/28 00:57:14;;;;;;;3.13;2.57;;;7.80;1.00;;;;;;5096640;28;20249;-44
2023/12/28 00:59:40;;;;;;;2.93;2.63;;;7.70;1.00;;;;;;5096701;28;20184;-50
2023/12/28 01:02:05;;;;;;;3.60;3.00;;;7.70;1.00;;;;;;5096567;28;20183;-45
2023/12/28 01:04:31;;;;;;;3.20;2.53;;;7.60;1.00;;;;;;5096384;28;20196;-46
2023/12/28 01:06:58;;;;;;;3.73;2.70;;;7.50;1.00;;;;;;5097480;28;20187;-42
2023/12/28 01:09:24;;;;;;;4.03;2.63;;;7.50;1.00;;;;;;5097171;28;20200;-43
2023/12/28 01:11:49;;;;;;;2.63;2.43;;;7.40;1.00;;;;;;5098215;28;20414;-45
2023/12/28 01:14:15;;;;;;;3.87;3.37;;;7.40;1.00;;;;;;5098088;28;20446;-42
2023/12/28 01:16:42;;;;;;;3.00;2.40;;;7.40;1.00;;;;;;5096011;28;20513;-42
2023/12/28 01:19:08;;;;;;;2.60;2.40;;;7.40;1.00;;;;;;5097411;28;20632;-42
2023/12/28 01:21:33;;;;;;;2.87;2.30;;;7.40;1.00;;;;;;5096277;28;20495;-43
2023/12/28 01:23:59;;;;;;;3.13;2.83;;;7.40;1.00;;;;;;5095686;28;20180;-44
2023/12/28 01:26:24;;;;;;;3.20;2.60;;;7.40;1.00;;;;;;5097383;28;20172;-42
2023/12/28 01:28:50;;;;;;;3.03;2.10;;;7.40;1.00;;;;;;5097119;28;20209;-45
2023/12/28 01:31:15;;;;;;;2.93;2.17;;;7.60;1.00;;;;;;5095886;28;20535;-45
2023/12/28 01:33:41;;;;;;;4.70;2.53;;;7.60;1.00;;;;;;5094622;28;20260;-42
2023/12/28 01:36:20;;;;;;;3.63;2.27;;;7.80;1.00;;;;;;5094246;28;20204;-43
2023/12/28 01:38:46;;;;;;;3.60;2.37;;;7.80;1.00;;;;;;5094311;28;20280;-43
2023/12/28 01:41:15;;;;;;;3.17;2.40;;;7.80;1.00;;;;;;5094216;28;20414;-41
2023/12/28 01:43:41;;;;;;;2.47;2.27;;;7.80;1.00;;;;;;5095210;28;20418;-43
2023/12/28 01:46:10;;;;;;;4.87;3.67;;;7.80;1.00;;;;;;5095989;28;20418;-43
2023/12/28 01:48:36;;;;;;;3.40;2.70;;;7.80;1.00;;;;;;5095555;28;20682;-43
2023/12/28 01:51:02;;;;;;;2.37;2.17;;;7.80;1.00;;;;;;5095861;28;20470;-43
2023/12/28 01:53:28;;;;;;;2.70;2.00;;;7.80;1.00;;;;;;5095070;28;20769;-43
2023/12/28 01:55:54;;;;;;;3.07;2.60;;;7.70;1.00;;;;;;5094357;28;20678;-47
2023/12/28 01:58:20;;;;;;;2.90;2.30;;;7.70;1.00;;;;;;5096200;28;20496;-42
2023/12/28 02:00:47;;;;;;;2.90;2.10;;;7.70;1.00;;;;;;5096886;28;20249;-44
2023/12/28 02:03:12;;;;;;;2.23;2.00;;;7.70;1.00;;;;;;5096567;28;20511;-47
2023/12/28 02:05:38;;;;;;;2.73;2.40;;;7.70;1.00;;;;;;5095804;28;20422;-45
2023/12/28 02:08:05;;;;;;;3.07;2.10;;;7.60;1.00;;;;;;5093994;28;20211;-42
2023/12/28 02:10:30;;;;;;;3.63;2.50;;;7.50;1.00;;;;;;5095731;28;20482;-41
2023/12/28 02:12:56;;;;;;;2.93;2.30;;;7.50;1.00;;;;;;5095297;28;20764;-43
2023/12/28 02:15:22;;;;;;;2.83;2.60;;;7.40;1.00;;;;;;5094261;28;20354;-43
2023/12/28 02:17:51;;;;;;;3.60;2.67;;;7.40;1.00;;;;;;5093555;28;20168;-44
2023/12/28 02:20:18;;;;;;;3.53;2.47;;;7.30;1.00;;;;;;5095895;28;20464;-46
2023/12/28 02:22:44;;;;;;;3.40;2.70;;;7.40;1.00;;;;;;5094154;28;20471;-44
2023/12/28 02:25:11;;;;;;;2.73;2.27;;;7.50;1.00;;;;;;5093825;28;20462;-43
2023/12/28 02:27:42;;;;;;;3.50;3.20;;;7.50;1.00;;;;;;5095335;28;20212;-42
2023/12/28 02:30:09;;;;;;;3.63;2.33;;;7.60;1.00;;;;;;5093367;28;20434;-45
2023/12/28 02:33:06;;;;;;;2.43;2.23;;;7.80;1.00;;;;;;5093714;28;20406;-42
2023/12/28 02:35:37;;;;;;;3.10;2.40;;;7.80;1.00;;;;;;5093824;28;20410;-41
2023/12/28 02:38:10;;;;;;;2.20;1.90;;;7.90;1.00;;;;;;5095651;28;20437;-42
2023/12/28 02:40:38;;;;;;;2.97;2.50;;;8.00;1.00;;;;;;5094888;28;20442;-44
2023/12/28 02:43:08;;;;;;;2.60;2.20;;;8.00;1.00;;;;;;5095193;28;20439;-44
2023/12/28 02:45:34;;;;;;;2.50;2.00;;;8.10;1.00;;;;;;5095327;28;20433;-45
2023/12/28 02:48:00;;;;;;;2.50;2.20;;;8.20;1.00;;;;;;5092988;28;20481;-43
2023/12/28 02:50:25;;;;;;;2.90;2.00;;;8.30;1.00;;;;;;5096061;28;20462;-41
2023/12/28 02:52:51;;;;;;;4.53;2.00;;;8.30;1.00;;;;;;5096289;28;20187;-45
2023/12/28 02:55:16;;;;;;;2.90;2.50;;;8.30;1.00;;;;;;5094773;28;20194;-43
2023/12/28 02:57:44;;;;;;;2.70;2.03;;;8.30;1.00;;;;;;5095258;28;20208;-43
2023/12/28 03:00:10;;;;;;;2.60;2.00;;;8.30;1.00;;;;;;5093997;28;20200;-42
2023/12/28 03:02:38;;;;;;;2.83;1.90;;;8.50;1.00;;;;;;5094341;28;20743;-44
2023/12/28 03:05:05;;;;;;;2.90;1.73;;;8.60;1.00;;;;;;5095749;28;20824;-45
2023/12/28 03:07:31;;;;;;;2.73;2.00;;;8.70;1.00;;;;;;5097265;28;20728;-47
2023/12/28 03:09:57;;;;;;;2.33;2.03;;;8.70;1.00;;;;;;5099410;28;20460;-43
2023/12/28 03:12:22;;;;;;;3.37;2.40;;;8.90;1.00;;;;;;5098266;28;20457;-45
2023/12/28 03:14:48;;;;;;;3.33;2.30;;;8.90;1.00;;;;;;5098985;28;20192;-43
2023/12/28 03:17:14;;;;;;;4.00;1.77;;;9.00;1.00;;;;;;5099454;28;20222;-46
2023/12/28 03:19:39;;;;;;;2.40;1.87;;;9.00;1.00;;;;;;5099247;28;20180;-44
2023/12/28 03:22:05;;;;;;;3.27;2.00;;;9.10;1.00;;;;;;5098381;28;20184;-43
2023/12/28 03:24:30;;;;;;;2.83;2.00;;;9.10;1.00;;;;;;5098983;28;20185;-46
2023/12/28 03:26:56;;;;;;;2.70;2.30;;;9.10;1.00;;;;;;5099167;28;20168;-44
2023/12/28 03:29:21;;;;;;;2.77;2.43;;;9.00;1.00;;;;;;5099226;28;20436;-44
2023/12/28 03:32:05;;;;;;;2.67;2.03;;;9.00;1.00;;;;;;5099187;28;20196;-43
2023/12/28 03:34:31;;;;;;;2.57;2.03;;;8.90;1.00;;;;;;5099241;28;20184;-43
2023/12/28 03:36:59;;;;;;;2.70;1.90;;;8.90;1.00;;;;;;5099136;28;20438;-43
2023/12/28 03:39:25;;;;;;;2.53;2.20;;;9.00;1.00;;;;;;5098886;28;20180;-42
2023/12/28 03:41:52;;;;;;;2.67;2.10;;;8.90;1.00;;;;;;5099426;28;20418;-43
2023/12/28 03:44:18;;;;;;;3.10;2.47;;;9.00;1.00;;;;;;5099601;28;20192;-42
2023/12/28 03:46:44;;;;;;;2.73;1.80;;;8.90;1.00;;;;;;5097927;28;20426;-43
2023/12/28 03:49:10;;;;;;;2.30;1.80;;;8.80;1.00;;;;;;5098161;28;20571;-45
2023/12/28 03:51:35;;;;;;;2.57;2.17;;;8.80;1.00;;;;;;5097439;28;20230;-43
2023/12/28 03:54:01;;;;;;;3.13;2.10;;;8.80;1.00;;;;;;5098383;28;20258;-43
2023/12/28 03:56:27;;;;;;;2.50;2.30;;;8.70;1.00;;;;;;5098978;28;20500;-46
2023/12/28 03:58:53;;;;;;;7.00;2.43;;;8.70;1.00;;;;;;5097315;28;20192;-42
2023/12/28 04:01:20;;;;;;;3.13;2.40;;;8.70;1.00;;;;;;5097968;28;20555;-45
2023/12/28 04:03:46;;;;;;;2.30;2.00;;;8.60;1.00;;;;;;5096002;28;20767;-44
2023/12/28 04:06:12;;;;;;;5.23;2.20;;;8.60;1.00;;;;;;5095940;28;20452;-47
2023/12/28 04:08:41;;;;;;;2.70;2.03;;;8.60;1.00;;;;;;5096565;28;20465;-43
2023/12/28 04:11:08;;;;;;;2.50;2.30;;;8.60;1.00;;;;;;5097754;28;20407;-41
2023/12/28 04:13:33;;;;;;;2.60;2.40;;;8.60;1.00;;;;;;5097430;28;20429;-42
2023/12/28 04:15:59;;;;;;;2.80;2.20;;;8.60;1.00;;;;;;5096505;28;20446;-45
2023/12/28 04:18:24;;;;;;;3.60;2.40;;;8.60;1.00;;;;;;5095662;28;20212;-41
2023/12/28 04:20:50;;;;;;;4.27;2.03;;;8.60;1.00;;;;;;5098248;28;20203;-43
2023/12/28 04:23:15;;;;;;;2.43;2.23;;;8.60;1.00;;;;;;5098358;28;20172;-42
2023/12/28 04:25:41;;;;;;;3.47;2.33;;;8.70;1.00;;;;;;5098404;28;20188;-42
2023/12/28 04:28:07;;;;;;;3.50;2.43;;;8.60;1.00;;;;;;5097696;28;20444;-45
2023/12/28 04:30:33;;;;;;;2.83;2.53;;;8.60;1.00;;;;;;5097569;28;20522;-43
2023/12/28 04:32:58;;;;;;;2.10;1.90;;;8.60;1.00;;;;;;5096418;28;20240;-43
2023/12/28 04:35:24;;;;;;;2.63;2.33;;;8.60;1.00;;;;;;5097802;28;20708;-45
2023/12/28 04:37:49;;;;;;;4.20;2.27;;;8.60;1.00;;;;;;5098127;28;20566;-42
2023/12/28 04:40:15;;;;;;;3.70;2.60;;;8.60;1.00;;;;;;5097798;28;20620;-43
2023/12/28 04:42:41;;;;;;;2.90;2.30;;;8.70;1.00;;;;;;5098009;28;20180;-42
2023/12/28 04:45:07;;;;;;;2.70;2.00;;;8.80;1.00;;;;;;5098625;28;20257;-44
2023/12/28 04:47:32;;;;;;;2.43;1.90;;;8.80;1.00;;;;;;5097509;28;20469;-43
2023/12/28 04:49:58;;;;;;;2.60;1.67;;;9.00;1.00;;;;;;5098047;28;20466;-42
2023/12/28 04:52:23;;;;;;;2.40;1.77;;;9.10;1.00;;;;;;5097364;28;20200;-42
2023/12/28 04:54:49;;;;;;;2.03;1.70;;;9.10;1.00;;;;;;5097702;28;20194;-41
2023/12/28 04:57:15;;;;;;;2.70;1.90;;;9.20;1.00;;;;;;5097450;28;20267;-42
2023/12/28 04:59:41;;;;;;;4.00;2.53;;;9.20;1.00;;;;;;5096923;28;20633;-42
2023/12/28 05:02:06;;;;;;;2.67;2.30;;;9.30;1.00;;;;;;5096316;28;20480;-43
2023/12/28 05:04:32;;;;;;;2.27;1.93;;;9.40;1.00;;;;;;5096028;28;20457;-43
2023/12/28 05:06:58;;;;;;;2.70;2.00;;;9.40;1.00;;;;;;5096002;28;20207;-47
2023/12/28 05:09:23;;;;;;;2.37;2.03;;;9.30;1.00;;;;;;5096419;28;20208;-43
2023/12/28 05:11:49;;;;;;;4.43;2.57;;;9.20;1.00;;;;;;5096602;28;20173;-42
2023/12/28 05:14:14;;;;;;;5.40;4.07;;;9.10;1.00;;;;;;5096620;28;20218;-42
2023/12/28 05:16:40;;;;;;;4.10;3.20;;;9.00;1.00;;;;;;5094831;28;20183;-41
2023/12/28 05:19:06;;;;;;;3.23;2.10;;;9.10;1.00;;;;;;5097467;28;20208;-43
2023/12/28 05:21:31;;;;;;;2.80;2.27;;;9.10;1.00;;;;;;5095582;28;20195;-44
2023/12/28 05:23:57;;;;;;;2.20;1.93;;;9.10;1.00;;;;;;5094408;28;20504;-42
2023/12/28 05:26:23;;;;;;;2.90;2.10;;;9.10;1.00;;;;;;5092730;28;20238;-42
2023/12/28 05:28:49;;;;;;;2.17;1.77;;;9.30;1.00;;;;;;5092798;28;20369;-51
2023/12/28 05:31:14;;;;;;;3.43;1.97;;;9.30;1.00;;;;;;5093086;28;20541;-41
2023/12/28 05:33:40;;;;;;;3.50;1.97;;;9.30;1.00;;;;;;5095064;28;20173;-44
2023/12/28 05:36:06;;;;;;;2.83;1.83;;;9.40;1.00;;;;;;5094456;28;20177;-42
2023/12/28 05:38:32;;;;;;;2.00;1.80;;;9.40;1.00;;;;;;5094135;28;20597;-51
2023/12/28 05:40:57;;;;;;;2.90;1.90;;;9.40;1.00;;;;;;5094629;28;20426;-43
2023/12/28 05:43:23;;;;;;;2.63;2.03;;;9.40;1.00;;;;;;5095369;28;20290;-42
2023/12/28 05:45:48;;;;;;;3.20;1.90;;;9.50;1.00;;;;;;5095644;28;20192;-45
2023/12/28 05:48:14;;;;;;;2.67;1.63;;;9.50;1.00;;;;;;5093681;28;20219;-41
2023/12/28 05:50:40;;;;;;;3.40;1.87;;;9.60;1.00;;;;;;5093908;28;20243;-43
2023/12/28 05:53:05;;;;;;;2.60;1.83;;;9.50;1.00;;;;;;5094504;28;20497;-43
2023/12/28 05:55:31;;;;;;;2.20;1.90;;;9.50;1.00;;;;;;5094509;28;20177;-42
2023/12/28 05:57:57;;;;;;;3.40;1.87;;;9.50;1.00;;;;;;5094845;28;20263;-41
2023/12/28 06:00:22;;;;;;;3.67;3.30;;;9.40;1.00;;;;;;5095331;28;20204;-41
2023/12/28 06:02:51;;;;;;;7.60;5.10;;;9.40;1.00;;;;;;5094818;28;20513;-43
2023/12/28 06:05:17;;;;;;;4.13;3.73;;;9.30;1.00;;;;;;5093949;28;20172;-41
2023/12/28 06:07:43;;;;;;;2.50;2.13;;;9.40;1.00;;;;;;5093842;28;20709;-43
2023/12/28 06:10:09;;;;;;;4.23;2.10;;;9.30;1.00;;;;;;5094109;28;20767;-41
2023/12/28 06:12:34;;;;;;;3.30;2.17;;;9.30;1.00;;;;;;5093919;28;20241;-42
2023/12/28 06:15:01;;;;;;;2.13;1.70;;;9.30;1.00;;;;;;5093949;28;20450;-44
2023/12/28 06:17:26;;;;;;;2.47;1.67;;;9.40;1.00;;;;;;5095238;28;20195;-45
2023/12/28 06:19:52;;;;;;;2.27;1.90;;;9.40;1.00;;;;;;5093778;28;20427;-45
2023/12/28 06:22:17;;;;;;;1.83;1.73;;;9.50;1.00;;;;;;5094330;28;20287;-43
2023/12/28 06:24:43;;;;;;;2.70;2.07;;;9.60;1.00;;;;;;5095111;28;20176;-44
2023/12/28 06:27:09;;;;;;;3.07;2.00;;;9.80;1.00;;;;;;5095494;28;20238;-43
2023/12/28 06:29:34;;;;;;;2.77;2.10;;;9.80;1.00;;;;;;5093649;28;20195;-41
2023/12/28 06:32:00;;;;;;;2.63;2.20;;;9.80;1.00;;;;;;5094275;28;20244;-42
2023/12/28 06:34:26;;;;;;;3.53;2.33;;;9.80;13.40;;;;;;5094937;28;20424;-43
2023/12/28 06:36:52;;;;;;;1.90;1.70;;;9.80;24.30;;;;;;5093857;28;20189;-43
2023/12/28 06:39:17;;;;;;;3.33;1.87;;;9.80;35.20;;;;;;5094592;28;20418;-43
2023/12/28 06:41:47;;;;;;;3.30;2.30;;;9.80;42.30;;;;;;5094550;28;20258;-42
2023/12/28 06:44:14;;;;;;;3.17;1.90;;;9.90;39.70;;;;;;5097965;28;20271;-45
2023/12/28 06:46:40;;;;;;;3.43;2.33;;;9.80;55.10;;;;;;5097950;28;20438;-43
2023/12/28 06:49:06;;;;;;;2.70;2.07;;;9.80;53.20;;;;;;5098678;28;20473;-45
2023/12/28 06:51:31;;;;;;;2.90;2.07;;;9.80;53.00;;;;;;5099460;28;20480;-44
2023/12/28 06:53:57;;;;;;;2.53;2.33;;;9.80;54.10;;;;;;5099266;28;20402;-42
2023/12/28 06:56:22;;;;;;;2.30;1.90;;;9.80;47.90;;;;;;5099459;28;20566;-43
2023/12/28 06:58:48;;;;;;;2.43;2.00;;;9.70;37.60;;;;;;5097966;28;20181;-42
2023/12/28 07:01:14;;;;;;;4.13;2.10;;;9.70;24.10;;;;;;5097612;28;20500;-44
2023/12/28 07:03:39;;;;;;;2.67;2.20;;;9.80;12.70;;;;;;5097602;28;20218;-44
2023/12/28 07:06:05;;;;;;;4.70;2.00;;;9.80;9.20;;;;;;5098139;28;20215;-45
2023/12/28 07:08:31;;;;;;;1.80;1.70;;;9.90;1.00;;;;;;5098226;28;20200;-45
2023/12/28 07:10:57;;;;;;;2.60;1.80;;;9.90;1.00;;;;;;5098777;28;20173;-44
2023/12/28 07:13:22;;;;;;;2.60;2.10;;;9.90;1.00;;;;;;5099139;28;20180;-43
2023/12/28 07:15:48;;;;;;;2.73;1.90;;;9.90;1.00;;;;;;5098735;28;20426;-46
2023/12/28 07:18:14;;;;;;;3.47;3.10;;;10.00;1.00;;;;;;5099340;28;20255;-44
2023/12/28 07:20:39;;;;;;;2.60;2.20;;;10.00;1.00;;;;;;5097788;28;20180;-42
2023/12/28 07:23:05;;;;;;;2.77;2.27;;;10.00;1.00;;;;;;5097281;28;20245;-45
2023/12/28 07:25:31;;;;;;;2.60;2.10;;;10.00;1.00;;;;;;5096387;28;20483;-44
2023/12/28 07:27:56;;;;;;;3.10;2.33;;;10.00;1.00;;;;;;5098182;28;20612;-45
2023/12/28 07:30:22;;;;;;;38.73;20.33;;;10.00;1.00;;;;;;5097907;28;20172;-44
2023/12/28 07:32:47;;;;;;;19.23;7.83;;;10.10;1.00;;;;;;5096607;28;20173;-44
2023/12/28 07:35:13;;;;;;;20.77;8.53;;;10.10;1.00;;;;;;5096399;28;20323;-44
2023/12/28 07:37:39;;;;;;;10.17;5.13;;;10.10;1.00;;;;;;5094260;28;20187;-42
2023/12/28 07:40:05;;;;;;;12.17;5.83;;;10.10;1.00;;;;;;5094170;28;20828;-42
2023/12/28 07:42:31;;;;;;;28.60;14.53;;;10.20;1.00;;;;;;5093905;28;20217;-43
2023/12/28 07:44:56;;;;;;;8.43;7.47;;;10.10;1.00;;;;;;5093859;28;20918;-42
2023/12/28 07:47:22;;;;;;;2.73;2.53;;;10.20;1.00;;;;;;5094867;28;20168;-41
2023/12/28 07:49:47;;;;;;;2.83;2.03;;;10.20;1.00;;;;;;5095010;28;20235;-42
2023/12/28 07:52:13;;;;;;;3.93;2.30;;;10.30;1.00;;;;;;5095291;28;20172;-43
2023/12/28 07:54:38;;;;;;;4.40;1.90;;;10.20;1.00;;;;;;5094736;28;20255;-41
2023/12/28 07:57:04;;;;;;;2.83;1.80;;;10.30;1.00;;;;;;5095065;28;20183;-45
2023/12/28 07:59:30;;;;;;;5.20;2.27;;;10.30;1.00;;;;;;5096518;28;20176;-45
2023/12/28 08:01:56;;;;;;;2.40;1.70;;;10.30;1.00;;;;;;5097599;28;20447;-41
2023/12/28 08:04:21;;;;;;;4.90;2.20;;;10.40;1.00;;;;;;5097086;28;20625;-44
2023/12/28 08:06:47;;;;;;;3.00;2.00;;;10.40;5.00;;;;;;5096804;28;20422;-42
2023/12/28 08:09:12;;;;;;;2.20;2.00;;;10.40;14.30;;;;;;5095760;28;20215;-44
2023/12/28 08:11:38;;;;;;;3.27;2.03;;;10.40;18.30;;;;;;5096600;28;20511;-46
2023/12/28 08:14:03;;;;;;;2.90;1.73;;;10.40;12.70;;;;;;5096161;28;20263;-46
2023/12/28 08:16:29;;;;;;;4.40;2.20;;;10.40;11.50;;;;;;5094808;28;20176;-43
2023/12/28 08:18:54;;;;;;;4.77;2.53;;;10.50;1.00;;;;;;5094551;28;20430;-43
2023/12/28 08:21:20;;;;;;;3.50;1.60;;;10.60;1.00;;;;;;5095670;28;20184;-41
2023/12/28 08:23:45;;;;;;;3.10;1.40;;;10.60;1.00;;;;;;5096801;28;20450;-42
2023/12/28 08:26:11;;;;;;;2.73;2.00;;;10.60;1.00;;;;;;5096715;28;20172;-42
2023/12/28 08:28:37;;;;;;;2.67;1.70;;;10.60;1.00;;;;;;5095864;28;20200;-43
2023/12/28 08:31:03;;;;;;;2.47;1.80;;;10.60;1.00;;;;;;5095439;28;20272;-44
2023/12/28 08:33:28;;;;;;;2.90;2.20;;;10.50;1.00;;;;;;5095843;28;20438;-42
2023/12/28 08:35:54;;;;;;;2.57;2.17;;;10.50;11.40;;;;;;5095243;28;20221;-42
2023/12/28 08:38:20;;;;;;;4.13;2.77;;;10.50;25.20;;;;;;5092183;28;20235;-45
2023/12/28 08:40:45;;;;;;;4.23;2.10;;;10.50;52.70;;;;;;5091839;28;20223;-44
2023/12/28 08:43:11;;;;;;;3.03;2.17;;;10.50;61.80;;;;;;5091709;28;20833;-42
2023/12/28 08:45:37;;;;;;;3.80;2.30;;;10.50;61.20;;;;;;5094259;28;20199;-42
2023/12/28 08:48:03;;;;;;;2.43;1.97;;;10.50;91.70;;;;;;5093954;28;20223;-45
2023/12/28 08:50:29;;;;;;;2.20;1.80;;;10.50;99.90;;;;;;5093996;28;20920;-41
2023/12/28 08:52:54;;;;;;;3.57;2.03;;;10.50;99.90;;;;;;5092779;28;20468;-43
2023/12/28 08:55:21;;;;;;;3.13;2.60;;;10.50;99.90;;;;;;5094295;28;20183;-42
2023/12/28 08:57:46;;;;;;;2.73;1.70;;;10.50;99.90;;;;;;5093653;28;20531;-43
2023/12/28 09:00:14;;;;;;;2.63;2.00;;;10.50;99.90;;;;;;5094484;28;20700;-46
2023/12/28 09:02:40;;;;;;;2.30;2.10;;;10.50;99.90;;;;;;5093872;28;20682;-46
2023/12/28 09:05:06;;;;;;;2.60;2.10;;;10.60;99.90;;;;;;5094521;28;20497;-44
2023/12/28 09:07:32;;;;;;;3.13;2.30;;;10.60;99.90;;;;;;5092800;28;20536;-43
2023/12/28 09:09:58;;;;;;;2.90;2.40;;;10.60;99.90;;;;;;5093852;28;20184;-45
2023/12/28 09:12:23;;;;;;;2.33;2.10;;;10.60;99.90;;;;;;5093890;28;20176;-43
2023/12/28 09:14:52;;;;;;;3.07;2.10;;;10.50;99.90;;;;;;5094869;28;20450;-41
2023/12/28 09:17:21;;;;;;;2.27;2.07;;;10.60;99.90;;;;;;5094166;28;20449;-42
2023/12/28 09:19:46;;;;;;;3.00;2.57;;;10.60;99.90;;;;;;5094449;28;20437;-42
2023/12/28 09:22:12;;;;;;;3.10;2.07;;;10.60;99.90;;;;;;5092302;28;20969;-43
2023/12/28 09:24:37;;;;;;;3.10;2.67;;;10.60;99.90;;;;;;5093238;28;20165;-47
2023/12/28 09:27:03;;;;;;;2.90;2.60;;;10.60;99.90;;;;;;5093814;28;20215;-46
2023/12/28 09:29:28;;;;;;;3.20;2.73;;;10.60;91.30;;;;;;5093781;28;20235;-45
2023/12/28 09:31:54;;;;;;;7.03;4.27;;;10.60;84.40;;;;;;5095861;28;20226;-47
2023/12/28 09:34:19;;;;;;;12.90;7.53;;;10.90;23.90;;;;;;5094974;28;20188;-47
2023/12/28 09:36:45;;;;;;;4.93;2.73;;;11.60;99.90;;;;;;5095205;28;20200;-43
2023/12/28 09:39:11;;;;;;;5.20;2.30;;;11.90;1.00;;;;;;5096481;28;20245;-43
2023/12/28 09:41:40;;;;;;;3.20;2.20;;;11.80;99.90;;;;;;5095070;28;20179;-45
2023/12/28 09:44:11;;;;;;;4.30;2.00;;;11.40;99.90;;;;;;5093168;28;20430;-43
2023/12/28 09:46:38;;;;;;;2.90;1.90;;;11.20;99.90;;;;;;5096695;28;20430;-43
2023/12/28 09:49:05;;;;;;;4.73;2.50;;;11.00;99.90;;;;;;5094164;28;20475;-44
2023/12/28 09:51:30;;;;;;;2.83;2.03;;;10.80;99.90;;;;;;5092923;28;20491;-43
2023/12/28 09:53:56;;;;;;;3.43;2.20;;;10.70;99.90;;;;;;5092622;28;20448;-46
2023/12/28 09:56:23;;;;;;;3.53;2.67;;;10.70;99.90;;;;;;5091330;28;20226;-47
2023/12/28 09:58:50;;;;;;;4.63;2.10;;;10.60;99.90;;;;;;5090868;28;20429;-43
2023/12/28 10:01:17;;;;;;;5.13;2.73;;;10.60;99.90;;;;;;5090351;28;20442;-42
2023/12/28 10:03:43;;;;;;;3.80;2.70;;;10.50;99.90;;;;;;5090851;28;20498;-41
2023/12/28 10:06:09;;;;;;;5.90;2.37;;;10.60;99.90;;;;;;5092030;28;20577;-42
2023/12/28 10:08:35;;;;;;;3.60;2.60;;;10.50;99.90;;;;;;5092063;28;20934;-47
2023/12/28 10:11:02;;;;;;;3.50;2.80;;;10.50;99.90;;;;;;5093988;28;20422;-46
2023/12/28 10:13:27;;;;;;;2.50;2.10;;;10.60;99.90;;;;;;5095445;28;20414;-43
2023/12/28 10:15:57;;;;;;;3.07;2.73;;;10.50;99.90;;;;;;5076178;28;20885;-42
2023/12/28 10:18:23;;;;;;;2.40;2.20;;;10.50;99.90;;;;;;5094440;28;20192;-42
2023/12/28 10:20:52;;;;;;;5.60;2.77;;;10.60;99.90;;;;;;5094841;28;20905;-45
2023/12/28 10:23:21;;;;;;;5.23;2.80;;;10.60;99.90;;;;;;5093300;28;20422;-45
2023/12/28 10:25:49;;;;;;;3.50;2.67;;;10.50;99.90;;;;;;5088246;28;20410;-41
2023/12/28 10:28:18;;;;;;;4.40;3.17;;;10.50;99.90;;;;;;5091166;28;20598;-42
2023/12/28 10:30:44;;;;;;;2.77;2.30;;;10.50;99.90;;;;;;5092147;28;20407;-46
2023/12/28 10:33:09;;;;;;;3.20;2.57;;;10.50;1.00;;;;;;5091695;28;20437;-43
2023/12/28 10:35:35;;;;;;;2.50;2.30;;;10.60;1.00;;;;;;5092700;28;20219;-44
2023/12/28 10:38:03;;;;;;;7.27;4.20;;;10.60;1.00;;;;;;5092226;28;20208;-42
2023/12/28 10:40:30;;;;;;;4.47;3.30;;;10.60;95.70;;;;;;5089062;28;20191;-42
2023/12/28 10:43:02;;;;;;;3.17;2.83;;;10.60;1.00;;;;;;5090219;28;20461;-42
2023/12/28 10:45:31;;;;;;;5.90;3.97;;;10.60;1.00;;;;;;5090550;28;20744;-43
2023/12/28 10:48:04;;;;;;;4.50;3.10;;;10.70;1.00;;;;;;5091137;28;20497;-42
2023/12/28 10:50:37;;;;;;;4.70;2.93;;;10.80;1.00;;;;;;5091838;28;20815;-44
2023/12/28 10:53:08;;;;;;;4.60;3.20;;;10.80;1.00;;;;;;5090241;28;20446;-44
2023/12/28 10:55:39;;;;;;;2.93;1.63;;;10.90;1.00;;;;;;5094721;28;20411;-45
2023/12/28 10:58:11;;;;;;;2.90;2.33;;;10.90;1.00;;;;;;5094546;28;20689;-44
2023/12/28 11:00:41;;;;;;;2.80;1.57;;;10.80;26.80;;;;;;5093312;28;20487;-44
2023/12/28 11:03:10;;;;;;;3.07;2.10;;;10.90;99.90;;;;;;5091605;28;20824;-43
2023/12/28 11:05:36;;;;;;;2.57;1.90;;;10.90;90.00;;;;;;5090567;28;20753;-42
2023/12/28 11:08:03;;;;;;;3.73;2.43;;;10.90;99.90;;;;;;5093325;28;20508;-44
2023/12/28 11:10:30;;;;;;;3.30;2.50;;;11.00;67.40;;;;;;5093649;28;20165;-44
2023/12/28 11:12:56;;;;;;;3.77;2.80;;;11.00;57.90;;;;;;5091781;28;20681;-43
2023/12/28 11:15:23;;;;;;;3.97;2.50;;;11.00;21.80;;;;;;5091859;28;20480;-42
2023/12/28 11:17:49;;;;;;;3.80;2.67;;;11.00;1.00;;;;;;5110242;28;20773;-45
2023/12/28 11:20:15;;;;;;;2.70;2.47;;;11.10;1.00;;;;;;5111922;28;20417;-43
2023/12/28 11:22:40;;;;;;;4.50;2.50;;;11.00;1.00;;;;;;5109250;28;20400;-42
2023/12/28 11:25:06;;;;;;;6.70;3.90;;;11.10;1.00;;;;;;5109836;28;20524;-45
2023/12/28 11:27:36;;;;;;;6.70;3.80;;;11.30;56.30;;;;;;5109313;28;20421;-44
2023/12/28 11:30:03;;;;;;;4.60;3.40;;;12.00;1.00;;;;;;5114868;28;20191;-46
2023/12/28 11:32:33;;;;;;;4.03;3.00;;;12.40;99.90;;;;;;5114160;28;20449;-43
2023/12/28 11:34:59;;;;;;;2.20;1.77;;;12.80;54.80;;;;;;5112098;28;20512;-43
2023/12/28 11:37:26;;;;;;;3.23;1.97;;;12.60;1.00;;;;;;5112024;28;20528;-44
2023/12/28 11:39:52;;;;;;;2.30;2.00;;;12.30;1.00;;;;;;5114201;28;20449;-44
2023/12/28 11:42:22;;;;;;;5.30;2.00;;;12.10;1.00;;;;;;5114830;28;20501;-44
2023/12/28 11:44:54;;;;;;;2.70;2.03;;;11.80;1.00;;;;;;5113124;28;20409;-42
2023/12/28 11:47:24;;;;;;;2.80;2.07;;;11.60;59.30;;;;;;5116635;28;20502;-44
2023/12/28 11:49:54;;;;;;;2.90;1.40;;;11.50;99.90;;;;;;5116089;28;20476;-42
2023/12/28 11:52:27;;;;;;;5.20;2.17;;;11.50;99.90;;;;;;5117908;28;20441;-46
2023/12/28 11:54:53;;;;;;;2.63;2.10;;;11.50;99.90;;;;;;5117495;28;20862;-42
2023/12/28 11:57:19;;;;;;;2.90;2.10;;;11.40;99.90;;;;;;5115282;27;20529;-44
2023/12/28 11:59:45;;;;;;;2.90;2.27;;;11.40;99.90;;;;;;5116721;28;20429;-43
2023/12/28 12:02:11;;;;;;;3.00;1.83;;;11.30;99.90;;;;;;5116280;28;20552;-42
2023/12/28 12:04:37;;;;;;;3.50;3.17;;;11.40;99.90;;;;;;5117382;28;20184;-44
2023/12/28 12:07:04;;;;;;;2.70;2.27;;;11.30;99.90;;;;;;5116794;28;20428;-46
2023/12/28 12:09:34;;;;;;;2.60;2.33;;;11.40;99.90;;;;;;5113815;28;20527;-42
2023/12/28 12:12:02;;;;;;;3.47;1.70;;;11.30;99.90;;;;;;5114613;28;20869;-48
2023/12/28 12:14:29;;;;;;;3.23;1.80;;;11.30;99.90;;;;;;5113342;28;20481;-43
2023/12/28 12:17:01;;;;;;;2.17;1.80;;;11.30;99.90;;;;;;5114969;28;20538;-43
2023/12/28 12:19:27;;;;;;;3.73;2.90;;;11.30;1.00;;;;;;5114050;28;20441;-42
2023/12/28 12:21:53;;;;;;;2.43;1.80;;;11.40;1.00;;;;;;5113825;28;20723;-42
2023/12/28 12:24:20;;;;;;;3.23;2.37;;;11.50;1.00;;;;;;5118151;28;20430;-43
2023/12/28 12:26:46;;;;;;;2.60;2.00;;;11.50;99.90;;;;;;5115383;28;20841;-42
2023/12/28 12:29:12;;;;;;;6.80;6.20;;;11.50;1.00;;;;;;5115802;28;20758;-43
2023/12/28 12:31:39;;;;;;;5.13;4.47;;;11.40;1.00;;;;;;5113198;28;20417;-45
2023/12/28 12:34:05;;;;;;;2.20;2.00;;;11.40;1.00;;;;;;5115741;28;20171;-44
2023/12/28 12:36:31;;;;;;;2.57;2.13;;;11.40;1.00;;;;;;5113701;28;20474;-42
2023/12/28 12:38:57;;;;;;;4.57;2.60;;;11.50;1.00;;;;;;5112694;28;20835;-44
2023/12/28 12:41:22;;;;;;;3.33;1.80;;;11.40;80.50;;;;;;5114274;28;20572;-43
2023/12/28 12:43:48;;;;;;;3.93;3.40;;;11.40;99.90;;;;;;5113582;28;20207;-45
2023/12/28 12:46:14;;;;;;;3.50;3.03;;;11.40;99.90;;;;;;5116219;28;20280;-41
2023/12/28 12:48:40;;;;;;;2.67;2.47;;;11.40;99.90;;;;;;5116375;28;20207;-42
2023/12/28 12:51:06;;;;;;;2.87;2.53;;;11.40;1.00;;;;;;5115039;28;20882;-44
2023/12/28 12:53:36;;;;;;;5.23;2.97;;;11.80;99.90;;;;;;5115868;28;20409;-42
2023/12/28 12:56:03;;;;;;;3.80;2.70;;;11.60;99.90;;;;;;5116366;28;20417;-44